This is the latest recevied weather packets stored in our database for station/object KA8DUX-2. If no packets are shown the sender has not sent any weather packets the latest 10 day(s).
| Time | Temp. | Humidity | Pressure | Rain* | Wind** | Luminosity | Snow |
|---|---|---|---|---|---|---|---|
| 1778097442 | 13.89° C | 35% | 1011.6 hPa | 0 mm | - | 706 W/m² | - |
| 1778097139 | 13.33° C | 37% | 1011.7 hPa | 0 mm | - | 716 W/m² | - |
| 1778096836 | 12.78° C | 38% | 1012 hPa | 0 mm | - | 746 W/m² | - |
| 1778096533 | 12.78° C | 39% | 1011.9 hPa | 0 mm | - | 167 W/m² | - |
| 1778096230 | 13.33° C | 37% | 1011.9 hPa | 0 mm | - | 223 W/m² | - |
| 1778095922 | 12.78° C | 38% | 1011.8 hPa | 0 mm | - | 333 W/m² | - |
| 1778095618 | 12.78° C | 40% | 1011.7 hPa | 0 mm | - | 257 W/m² | - |
| 1778095314 | 12.78° C | 39% | 1012 hPa | 0 mm | - | 246 W/m² | - |
| 1778095012 | 12.78° C | 41% | 1011.8 hPa | 0 mm | - | 413 W/m² | - |
| 1778094708 | 12.22° C | 39% | 1011.5 hPa | 0 mm | - | 271 W/m² | - |
| 1778094405 | 12.78° C | 38% | 1012 hPa | 0 mm | - | 203 W/m² | - |
| 1778094102 | 13.89° C | 37% | 1012 hPa | 0 mm | - | 267 W/m² | - |
| 1778093799 | 12.22° C | 40% | 1011.8 hPa | 0 mm | - | 903 W/m² | - |
| 1778093495 | 12.78° C | 39% | 1011.8 hPa | 0 mm | - | 271 W/m² | - |
| 1778093193 | 12.78° C | 39% | 1011.7 hPa | 0 mm | - | 268 W/m² | - |
| 1778092890 | 12.78° C | 37% | 1011.8 hPa | 0 mm | - | 278 W/m² | - |
| 1778092586 | 11.67° C | 39% | 1011.7 hPa | 0 mm | - | 333 W/m² | - |
| 1778092282 | 12.22° C | 38% | 1011.8 hPa | 0 mm | - | 304 W/m² | - |
| 1778091980 | 13.33° C | 38% | 1011.8 hPa | 0 mm | - | 551 W/m² | - |
| 1778091677 | 13.33° C | 35% | 1011.8 hPa | 0 mm | - | 248 W/m² | - |
| 1778091375 | 13.89° C | 36% | 1011.7 hPa | 0 mm | - | 461 W/m² | - |
| 1778091072 | 13.33° C | 37% | 1011.9 hPa | 0 mm | - | 859 W/m² | - |
| 1778090768 | 12.78° C | 40% | 1011.6 hPa | 0 mm | - | 856 W/m² | - |
| 1778090465 | 12.78° C | 40% | 1011.7 hPa | 0 mm | - | 275 W/m² | - |
| 1778090161 | 12.78° C | 39% | 1011.7 hPa | 0 mm | - | 287 W/m² | - |
* Rain latest hour (hover to see other rain measurements)
** Current wind speed in m/s (hover to see current wind gust speed)